sensor_id;sensor_type;location;lat;lon;timestamp;pressure;altitude;pressure_sealevel;temperature;humidity
73143;BME280;61343;53.694;9.988;2022-07-25T00:02:00;100976.59;;;20.43;69.83
73143;BME280;61343;53.694;9.988;2022-07-25T00:04:26;100971.16;;;20.43;70.17
73143;BME280;61343;53.694;9.988;2022-07-25T00:06:51;100974.19;;;20.42;70.06
73143;BME280;61343;53.694;9.988;2022-07-25T00:09:16;100970.94;;;20.40;70.18
73143;BME280;61343;53.694;9.988;2022-07-25T00:11:42;100961.13;;;20.39;70.11
73143;BME280;61343;53.694;9.988;2022-07-25T00:14:07;100964.38;;;20.41;70.29
73143;BME280;61343;53.694;9.988;2022-07-25T00:16:32;100962.78;;;20.40;70.15
73143;BME280;61343;53.694;9.988;2022-07-25T00:18:58;100961.41;;;20.37;70.32
73143;BME280;61343;53.694;9.988;2022-07-25T00:21:23;100956.78;;;20.33;70.29
73143;BME280;61343;53.694;9.988;2022-07-25T00:23:49;100959.53;;;20.28;70.52
73143;BME280;61343;53.694;9.988;2022-07-25T00:26:14;100964.41;;;20.31;70.34
73143;BME280;61343;53.694;9.988;2022-07-25T00:28:41;100956.78;;;20.33;70.55
73143;BME280;61343;53.694;9.988;2022-07-25T00:31:06;100967.91;;;20.31;70.48
73143;BME280;61343;53.694;9.988;2022-07-25T00:33:32;100960.06;;;20.30;70.52
73143;BME280;61343;53.694;9.988;2022-07-25T00:35:57;100952.44;;;20.27;70.69
73143;BME280;61343;53.694;9.988;2022-07-25T00:38:23;100951.38;;;20.28;70.33
73143;BME280;61343;53.694;9.988;2022-07-25T00:40:48;100942.13;;;20.29;70.26
73143;BME280;61343;53.694;9.988;2022-07-25T00:43:13;100949.72;;;20.32;70.10
73143;BME280;61343;53.694;9.988;2022-07-25T00:45:39;100939.41;;;20.29;70.17
73143;BME280;61343;53.694;9.988;2022-07-25T00:48:04;100930.72;;;20.32;69.99
73143;BME280;61343;53.694;9.988;2022-07-25T00:50:31;100944.84;;;20.39;69.17
73143;BME280;61343;53.694;9.988;2022-07-25T00:52:56;100942.94;;;20.44;69.16
73143;BME280;61343;53.694;9.988;2022-07-25T00:55:22;100933.41;;;20.52;68.44
73143;BME280;61343;53.694;9.988;2022-07-25T00:57:48;100935.84;;;20.53;68.36
73143;BME280;61343;53.694;9.988;2022-07-25T01:00:15;100927.41;;;20.55;67.86
73143;BME280;61343;53.694;9.988;2022-07-25T01:02:40;100927.97;;;20.57;67.10
73143;BME280;61343;53.694;9.988;2022-07-25T01:05:06;100920.91;;;20.56;66.94
73143;BME280;61343;53.694;9.988;2022-07-25T01:07:32;100916.28;;;20.56;67.29
73143;BME280;61343;53.694;9.988;2022-07-25T01:09:58;100924.44;;;20.56;67.39
73143;BME280;61343;53.694;9.988;2022-07-25T01:12:24;100917.34;;;20.55;67.29
73143;BME280;61343;53.694;9.988;2022-07-25T01:14:49;100927.97;;;20.57;66.95
73143;BME280;61343;53.694;9.988;2022-07-25T01:17:15;100925.50;;;20.55;67.44
73143;BME280;61343;53.694;9.988;2022-07-25T01:19:41;100926.34;;;20.51;67.67
73143;BME280;61343;53.694;9.988;2022-07-25T01:22:06;100917.41;;;20.45;67.89
73143;BME280;61343;53.694;9.988;2022-07-25T01:24:33;100919.81;;;20.47;67.96
73143;BME280;61343;53.694;9.988;2022-07-25T01:26:59;100916.84;;;20.48;67.79
73143;BME280;61343;53.694;9.988;2022-07-25T01:29:25;100916.28;;;20.46;67.91
73143;BME280;61343;53.694;9.988;2022-07-25T01:31:50;100913.56;;;20.46;67.23
73143;BME280;61343;53.694;9.988;2022-07-25T01:34:15;100909.25;;;20.45;67.71
73143;BME280;61343;53.694;9.988;2022-07-25T01:36:41;100908.97;;;20.47;67.40
73143;BME280;61343;53.694;9.988;2022-07-25T01:39:06;100904.06;;;20.44;67.65
73143;BME280;61343;53.694;9.988;2022-07-25T01:41:31;100905.41;;;20.46;67.17
73143;BME280;61343;53.694;9.988;2022-07-25T01:43:57;100901.63;;;20.37;66.65
73143;BME280;61343;53.694;9.988;2022-07-25T01:46:22;100903.00;;;20.40;65.90
73143;BME280;61343;53.694;9.988;2022-07-25T01:48:47;100898.94;;;20.42;66.36
73143;BME280;61343;53.694;9.988;2022-07-25T01:51:13;100894.31;;;20.43;66.01
73143;BME280;61343;53.694;9.988;2022-07-25T01:53:38;100890.50;;;20.44;66.06
73143;BME280;61343;53.694;9.988;2022-07-25T01:56:04;100885.06;;;20.39;65.74
73143;BME280;61343;53.694;9.988;2022-07-25T01:58:30;100887.25;;;20.37;65.64
73143;BME280;61343;53.694;9.988;2022-07-25T02:00:55;100879.66;;;20.34;66.25
73143;BME280;61343;53.694;9.988;2022-07-25T02:03:21;100874.22;;;20.29;65.75
73143;BME280;61343;53.694;9.988;2022-07-25T02:06:00;100870.66;;;20.23;65.50
73143;BME280;61343;53.694;9.988;2022-07-25T02:08:27;100867.69;;;20.15;65.82
73143;BME280;61343;53.694;9.988;2022-07-25T02:10:52;100864.72;;;20.11;65.07
73143;BME280;61343;53.694;9.988;2022-07-25T02:13:19;100863.63;;;20.12;64.95
73143;BME280;61343;53.694;9.988;2022-07-25T02:15:44;100860.63;;;20.14;64.58
73143;BME280;61343;53.694;9.988;2022-07-25T02:18:10;100854.66;;;20.12;64.45
73143;BME280;61343;53.694;9.988;2022-07-25T02:20:35;100854.94;;;20.10;64.11
73143;BME280;61343;53.694;9.988;2022-07-25T02:23:02;100855.47;;;20.12;64.52
73143;BME280;61343;53.694;9.988;2022-07-25T02:25:27;100841.63;;;20.09;63.88
73143;BME280;61343;53.694;9.988;2022-07-25T02:27:52;100843.28;;;20.10;63.32
73143;BME280;61343;53.694;9.988;2022-07-25T02:30:17;100837.28;;;20.13;63.14
73143;BME280;61343;53.694;9.988;2022-07-25T02:32:43;100834.03;;;20.11;62.81
73143;BME280;61343;53.694;9.988;2022-07-25T02:35:08;100832.69;;;20.13;62.75
73143;BME280;61343;53.694;9.988;2022-07-25T02:37:33;100825.63;;;20.12;62.67
73143;BME280;61343;53.694;9.988;2022-07-25T02:39:59;100832.13;;;20.11;62.51
73143;BME280;61343;53.694;9.988;2022-07-25T02:42:24;100831.59;;;20.09;62.41
73143;BME280;61343;53.694;9.988;2022-07-25T02:44:50;100823.72;;;20.08;62.22
73143;BME280;61343;53.694;9.988;2022-07-25T02:47:15;100825.34;;;20.09;61.95
73143;BME280;61343;53.694;9.988;2022-07-25T02:49:40;100819.38;;;20.07;61.64
73143;BME280;61343;53.694;9.988;2022-07-25T02:52:06;100814.22;;;20.05;62.12
73143;BME280;61343;53.694;9.988;2022-07-25T02:54:31;100814.50;;;20.03;61.63
73143;BME280;61343;53.694;9.988;2022-07-25T02:56:56;100811.50;;;20.00;61.63
73143;BME280;61343;53.694;9.988;2022-07-25T02:59:22;100810.69;;;19.99;61.34
73143;BME280;61343;53.694;9.988;2022-07-25T03:01:47;100809.63;;;20.00;60.75
73143;BME280;61343;53.694;9.988;2022-07-25T03:04:13;100807.16;;;19.99;61.21
73143;BME280;61343;53.694;9.988;2022-07-25T03:06:38;100801.47;;;20.00;60.58
73143;BME280;61343;53.694;9.988;2022-07-25T03:09:03;100805.25;;;19.99;61.15
73143;BME280;61343;53.694;9.988;2022-07-25T03:11:28;100802.56;;;19.99;60.75
73143;BME280;61343;53.694;9.988;2022-07-25T03:13:54;100796.88;;;20.01;60.08
73143;BME280;61343;53.694;9.988;2022-07-25T03:16:19;100793.03;;;20.02;59.93
73143;BME280;61343;53.694;9.988;2022-07-25T03:18:45;100786.00;;;19.96;59.78
73143;BME280;61343;53.694;9.988;2022-07-25T03:21:11;100784.09;;;19.96;59.73
73143;BME280;61343;53.694;9.988;2022-07-25T03:23:36;100791.72;;;19.94;59.57
73143;BME280;61343;53.694;9.988;2022-07-25T03:26:01;100783.81;;;19.93;59.44
73143;BME280;61343;53.694;9.988;2022-07-25T03:28:27;100781.09;;;19.93;59.54
73143;BME280;61343;53.694;9.988;2022-07-25T03:30:52;100772.72;;;19.94;59.70
73143;BME280;61343;53.694;9.988;2022-07-25T03:33:17;100770.00;;;19.94;59.02
73143;BME280;61343;53.694;9.988;2022-07-25T03:35:43;100770.81;;;19.95;59.26
73143;BME280;61343;53.694;9.988;2022-07-25T03:38:09;100767.81;;;19.96;59.11
73143;BME280;61343;53.694;9.988;2022-07-25T03:40:34;100762.38;;;19.96;58.73
73143;BME280;61343;53.694;9.988;2022-07-25T03:43:00;100767.25;;;19.99;58.79
73143;BME280;61343;53.694;9.988;2022-07-25T03:45:26;100758.03;;;20.00;58.90
73143;BME280;61343;53.694;9.988;2022-07-25T03:47:51;100754.78;;;19.98;58.38
73143;BME280;61343;53.694;9.988;2022-07-25T03:50:16;100751.78;;;20.00;58.54
73143;BME280;61343;53.694;9.988;2022-07-25T03:52:41;100746.63;;;20.03;58.20
73143;BME280;61343;53.694;9.988;2022-07-25T03:55:09;100746.88;;;20.02;58.14
73143;BME280;61343;53.694;9.988;2022-07-25T03:57:35;100743.91;;;20.03;58.10
73143;BME280;61343;53.694;9.988;2022-07-25T04:00:00;100740.13;;;20.04;58.51
73143;BME280;61343;53.694;9.988;2022-07-25T04:02:26;100736.03;;;20.07;58.06
73143;BME280;61343;53.694;9.988;2022-07-25T04:04:51;100731.41;;;20.08;57.86
73143;BME280;61343;53.694;9.988;2022-07-25T04:07:17;100729.50;;;20.13;57.73
73143;BME280;61343;53.694;9.988;2022-07-25T04:09:43;100730.59;;;20.12;57.92
73143;BME280;61343;53.694;9.988;2022-07-25T04:12:08;100734.13;;;20.13;57.93
73143;BME280;61343;53.694;9.988;2022-07-25T04:14:34;100724.84;;;20.14;57.51
73143;BME280;61343;53.694;9.988;2022-07-25T04:16:59;100712.91;;;20.20;57.52
73143;BME280;61343;53.694;9.988;2022-07-25T04:19:24;100711.25;;;20.24;57.26
73143;BME280;61343;53.694;9.988;2022-07-25T04:21:49;100708.03;;;20.27;56.75
73143;BME280;61343;53.694;9.988;2022-07-25T04:24:15;100709.66;;;20.28;56.97
73143;BME280;61343;53.694;9.988;2022-07-25T04:26:40;100700.94;;;20.31;57.05
73143;BME280;61343;53.694;9.988;2022-07-25T04:29:05;100697.69;;;20.34;56.97
73143;BME280;61343;53.694;9.988;2022-07-25T04:31:31;100696.81;;;20.38;56.29
73143;BME280;61343;53.694;9.988;2022-07-25T04:33:57;100697.34;;;20.40;56.56
73143;BME280;61343;53.694;9.988;2022-07-25T04:36:22;100688.94;;;20.42;56.17
73143;BME280;61343;53.694;9.988;2022-07-25T04:38:48;100682.13;;;20.44;56.02
73143;BME280;61343;53.694;9.988;2022-07-25T04:41:13;100684.81;;;20.49;55.98
73143;BME280;61343;53.694;9.988;2022-07-25T04:43:38;100681.78;;;20.56;56.02
73143;BME280;61343;53.694;9.988;2022-07-25T04:46:03;100673.06;;;20.59;55.86
73143;BME280;61343;53.694;9.988;2022-07-25T04:48:29;100670.31;;;20.64;56.10
73143;BME280;61343;53.694;9.988;2022-07-25T04:50:54;100664.31;;;20.67;55.58
73143;BME280;61343;53.694;9.988;2022-07-25T04:53:19;100661.59;;;20.72;55.51
73143;BME280;61343;53.694;9.988;2022-07-25T04:55:45;100658.84;;;20.77;54.79
73143;BME280;61343;53.694;9.988;2022-07-25T04:58:10;100657.19;;;20.81;54.71
73143;BME280;61343;53.694;9.988;2022-07-25T05:00:35;100652.00;;;20.80;54.82
73143;BME280;61343;53.694;9.988;2022-07-25T05:03:01;100647.34;;;20.85;54.82
73143;BME280;61343;53.694;9.988;2022-07-25T05:05:26;100638.63;;;20.88;54.51
73143;BME280;61343;53.694;9.988;2022-07-25T05:07:56;100634.81;;;20.89;54.86
73143;BME280;61343;53.694;9.988;2022-07-25T05:10:23;100638.31;;;20.95;54.15
73143;BME280;61343;53.694;9.988;2022-07-25T05:12:48;100640.16;;;20.99;54.30
73143;BME280;61343;53.694;9.988;2022-07-25T05:15:13;100621.09;;;21.04;54.11
73143;BME280;61343;53.694;9.988;2022-07-25T05:17:39;100623.81;;;21.09;53.65
73143;BME280;61343;53.694;9.988;2022-07-25T05:20:05;100625.31;;;21.21;53.23
73143;BME280;61343;53.694;9.988;2022-07-25T05:22:30;100628.78;;;21.31;53.43
73143;BME280;61343;53.694;9.988;2022-07-25T05:24:55;100618.59;;;21.42;52.67
73143;BME280;61343;53.694;9.988;2022-07-25T05:27:21;100625.84;;;21.51;52.51
73143;BME280;61343;53.694;9.988;2022-07-25T05:29:46;100614.03;;;21.61;52.39
73143;BME280;61343;53.694;9.988;2022-07-25T05:32:11;100612.28;;;21.70;52.68
73143;BME280;61343;53.694;9.988;2022-07-25T05:34:36;100616.22;;;21.83;51.41
73143;BME280;61343;53.694;9.988;2022-07-25T05:37:02;100608.81;;;21.88;51.18
73143;BME280;61343;53.694;9.988;2022-07-25T05:39:27;100609.88;;;21.92;51.45
73143;BME280;61343;53.694;9.988;2022-07-25T05:41:53;100607.06;;;21.97;51.14
73143;BME280;61343;53.694;9.988;2022-07-25T05:44:18;100592.28;;;22.03;51.33
73143;BME280;61343;53.694;9.988;2022-07-25T05:46:44;100593.25;;;22.12;51.27
73143;BME280;61343;53.694;9.988;2022-07-25T05:49:09;100588.84;;;22.16;50.93
73143;BME280;61343;53.694;9.988;2022-07-25T05:51:35;100592.53;;;22.26;50.57
73143;BME280;61343;53.694;9.988;2022-07-25T05:54:00;100588.56;;;22.37;50.03
73143;BME280;61343;53.694;9.988;2022-07-25T05:56:25;100601.38;;;22.55;49.71
73143;BME280;61343;53.694;9.988;2022-07-25T05:58:50;100596.00;;;22.68;49.38
73143;BME280;61343;53.694;9.988;2022-07-25T06:01:16;100586.34;;;22.76;49.44
73143;BME280;61343;53.694;9.988;2022-07-25T06:03:42;100581.41;;;22.78;49.45
73143;BME280;61343;53.694;9.988;2022-07-25T06:06:08;100584.63;;;22.80;49.45
73143;BME280;61343;53.694;9.988;2022-07-25T06:08:34;100582.94;;;22.84;49.28
73143;BME280;61343;53.694;9.988;2022-07-25T06:11:00;100578.31;;;22.98;49.07
73143;BME280;61343;53.694;9.988;2022-07-25T06:13:28;100583.59;;;23.08;48.16
73143;BME280;61343;53.694;9.988;2022-07-25T06:15:53;100569.25;;;23.16;48.22
73143;BME280;61343;53.694;9.988;2022-07-25T06:18:18;100572.41;;;23.23;47.83
73143;BME280;61343;53.694;9.988;2022-07-25T06:20:43;100564.53;;;23.35;47.99
73143;BME280;61343;53.694;9.988;2022-07-25T06:23:09;100566.69;;;23.39;48.25
73143;BME280;61343;53.694;9.988;2022-07-25T06:25:34;100554.13;;;23.38;47.61
73143;BME280;61343;53.694;9.988;2022-07-25T06:28:00;100556.34;;;23.35;47.84
73143;BME280;61343;53.694;9.988;2022-07-25T06:30:25;100551.78;;;23.31;47.79
73143;BME280;61343;53.694;9.988;2022-07-25T06:32:51;100563.06;;;23.43;48.05
73143;BME280;61343;53.694;9.988;2022-07-25T06:35:16;100552.53;;;23.64;47.44
73143;BME280;61343;53.694;9.988;2022-07-25T06:37:42;100555.03;;;23.74;47.57
73143;BME280;61343;53.694;9.988;2022-07-25T06:40:08;100553.59;;;23.90;46.80
73143;BME280;61343;53.694;9.988;2022-07-25T06:42:42;100556.13;;;24.00;46.81
73143;BME280;61343;53.694;9.988;2022-07-25T06:45:08;100549.84;;;24.00;46.57
73143;BME280;61343;53.694;9.988;2022-07-25T06:47:35;100554.88;;;24.06;46.56
73143;BME280;61343;53.694;9.988;2022-07-25T06:50:00;100551.03;;;24.07;46.42
73143;BME280;61343;53.694;9.988;2022-07-25T06:52:26;100544.88;;;24.15;46.47
73143;BME280;61343;53.694;9.988;2022-07-25T06:54:51;100546.06;;;24.09;46.67
73143;BME280;61343;53.694;9.988;2022-07-25T06:57:16;100540.75;;;24.18;46.70
73143;BME280;61343;53.694;9.988;2022-07-25T06:59:41;100539.31;;;24.20;46.31
73143;BME280;61343;53.694;9.988;2022-07-25T07:02:09;100538.00;;;24.18;46.12
73143;BME280;61343;53.694;9.988;2022-07-25T07:04:34;100538.44;;;24.33;46.58
73143;BME280;61343;53.694;9.988;2022-07-25T07:06:59;100532.78;;;24.52;46.79
73143;BME280;61343;53.694;9.988;2022-07-25T07:09:24;100542.25;;;24.46;46.30
73143;BME280;61343;53.694;9.988;2022-07-25T07:11:50;100532.78;;;24.52;46.13
73143;BME280;61343;53.694;9.988;2022-07-25T07:14:15;100526.75;;;24.64;46.60
73143;BME280;61343;53.694;9.988;2022-07-25T07:16:40;100524.25;;;24.76;46.03
73143;BME280;61343;53.694;9.988;2022-07-25T07:19:06;100520.78;;;24.84;46.05
73143;BME280;61343;53.694;9.988;2022-07-25T07:21:34;100522.94;;;24.95;45.98
73143;BME280;61343;53.694;9.988;2022-07-25T07:24:00;100528.34;;;25.09;45.24
73143;BME280;61343;53.694;9.988;2022-07-25T07:26:25;100519.06;;;25.27;45.29
73143;BME280;61343;53.694;9.988;2022-07-25T07:28:50;100519.91;;;25.36;44.70
73143;BME280;61343;53.694;9.988;2022-07-25T07:31:18;100510.41;;;25.42;44.01
73143;BME280;61343;53.694;9.988;2022-07-25T07:33:43;100502.63;;;25.67;43.99
73143;BME280;61343;53.694;9.988;2022-07-25T07:36:09;100497.66;;;25.86;43.82
73143;BME280;61343;53.694;9.988;2022-07-25T07:38:35;100500.88;;;26.05;43.88
73143;BME280;61343;53.694;9.988;2022-07-25T07:41:00;100492.50;;;26.10;43.21
73143;BME280;61343;53.694;9.988;2022-07-25T07:43:25;100493.31;;;26.02;43.08
73143;BME280;61343;53.694;9.988;2022-07-25T07:45:51;100487.06;;;26.27;43.24
73143;BME280;61343;53.694;9.988;2022-07-25T07:48:16;100495.28;;;26.36;42.89
73143;BME280;61343;53.694;9.988;2022-07-25T07:50:41;100480.25;;;26.50;43.05
73143;BME280;61343;53.694;9.988;2022-07-25T07:53:06;100483.28;;;26.57;42.00
73143;BME280;61343;53.694;9.988;2022-07-25T07:55:32;100477.78;;;26.57;42.77
73143;BME280;61343;53.694;9.988;2022-07-25T07:58:17;100479.72;;;26.66;42.55
73143;BME280;61343;53.694;9.988;2022-07-25T08:00:47;100473.09;;;26.67;41.87
73143;BME280;61343;53.694;9.988;2022-07-25T08:03:16;100477.63;;;26.80;41.83
73143;BME280;61343;53.694;9.988;2022-07-25T08:05:43;100472.06;;;26.97;41.59
73143;BME280;61343;53.694;9.988;2022-07-25T08:08:11;100464.94;;;26.96;41.53
73143;BME280;61343;53.694;9.988;2022-07-25T08:10:39;100462.22;;;27.25;41.59
73143;BME280;61343;53.694;9.988;2022-07-25T08:15:42;100451.31;;;27.46;41.17
73143;BME280;61343;53.694;9.988;2022-07-25T08:18:08;100452.50;;;27.36;40.87
73143;BME280;61343;53.694;9.988;2022-07-25T08:20:34;100447.00;;;27.36;41.15
73143;BME280;61343;53.694;9.988;2022-07-25T08:22:59;100446.81;;;27.41;41.07
73143;BME280;61343;53.694;9.988;2022-07-25T08:25:25;100442.59;;;27.44;41.48
73143;BME280;61343;53.694;9.988;2022-07-25T08:27:51;100437.25;;;27.47;41.61
73143;BME280;61343;53.694;9.988;2022-07-25T08:30:17;100441.28;;;27.70;40.95
73143;BME280;61343;53.694;9.988;2022-07-25T08:32:54;100437.34;;;28.01;40.85
73143;BME280;61343;53.694;9.988;2022-07-25T08:35:21;100433.34;;;28.31;40.37
73143;BME280;61343;53.694;9.988;2022-07-25T08:37:47;100426.31;;;28.54;40.08
73143;BME280;61343;53.694;9.988;2022-07-25T08:40:15;100416.06;;;28.75;39.65
73143;BME280;61343;53.694;9.988;2022-07-25T08:42:41;100424.09;;;28.81;38.65
73143;BME280;61343;53.694;9.988;2022-07-25T08:45:08;100422.66;;;28.62;39.80
73143;BME280;61343;53.694;9.988;2022-07-25T08:47:35;100418.28;;;28.61;38.96
73143;BME280;61343;53.694;9.988;2022-07-25T08:50:05;100408.81;;;28.71;39.07
73143;BME280;61343;53.694;9.988;2022-07-25T08:52:31;100408.72;;;28.92;39.55
73143;BME280;61343;53.694;9.988;2022-07-25T08:55:01;100410.53;;;29.00;39.00
73143;BME280;61343;53.694;9.988;2022-07-25T08:57:27;100407.56;;;29.05;38.87
73143;BME280;61343;53.694;9.988;2022-07-25T08:59:58;100405.50;;;29.14;38.09
73143;BME280;61343;53.694;9.988;2022-07-25T09:02:27;100403.88;;;29.13;37.39
73143;BME280;61343;53.694;9.988;2022-07-25T09:04:54;100405.03;;;29.00;37.85
73143;BME280;61343;53.694;9.988;2022-07-25T09:07:37;100406.66;;;29.01;37.47
73143;BME280;61343;53.694;9.988;2022-07-25T09:10:35;100396.56;;;29.17;38.42
73143;BME280;61343;53.694;9.988;2022-07-25T09:13:02;100404.34;;;29.15;38.05
73143;BME280;61343;53.694;9.988;2022-07-25T09:15:37;100400.19;;;29.21;37.17
73143;BME280;61343;53.694;9.988;2022-07-25T09:18:06;100399.28;;;29.41;37.25
73143;BME280;61343;53.694;9.988;2022-07-25T09:20:45;100386.09;;;29.74;37.51
73143;BME280;61343;53.694;9.988;2022-07-25T09:23:12;100393.44;;;29.70;36.01
73143;BME280;61343;53.694;9.988;2022-07-25T09:25:39;100384.94;;;29.88;35.80
73143;BME280;61343;53.694;9.988;2022-07-25T09:28:18;100391.50;;;30.26;35.80
73143;BME280;61343;53.694;9.988;2022-07-25T09:31:00;100387.19;;;29.98;35.84
73143;BME280;61343;53.694;9.988;2022-07-25T09:33:27;100384.91;;;30.43;35.98
73143;BME280;61343;53.694;9.988;2022-07-25T09:35:53;100389.53;;;30.70;34.79
73143;BME280;61343;53.694;9.988;2022-07-25T09:38:20;100383.84;;;30.63;35.17
73143;BME280;61343;53.694;9.988;2022-07-25T09:40:58;100382.59;;;30.45;35.16
73143;BME280;61343;53.694;9.988;2022-07-25T09:43:41;100374.56;;;30.40;36.08
73143;BME280;61343;53.694;9.988;2022-07-25T09:46:08;100372.16;;;30.85;34.65
73143;BME280;61343;53.694;9.988;2022-07-25T09:48:35;100373.06;;;30.58;35.59
73143;BME280;61343;53.694;9.988;2022-07-25T09:51:01;100377.69;;;30.70;35.22
73143;BME280;61343;53.694;9.988;2022-07-25T09:53:27;100370.66;;;30.72;35.41
73143;BME280;61343;53.694;9.988;2022-07-25T09:55:53;100370.66;;;30.72;34.72
73143;BME280;61343;53.694;9.988;2022-07-25T09:58:21;100359.50;;;30.84;35.15
73143;BME280;61343;53.694;9.988;2022-07-25T10:00:46;100364.25;;;31.00;34.13
73143;BME280;61343;53.694;9.988;2022-07-25T10:03:40;100346.38;;;31.13;34.21
73143;BME280;61343;53.694;9.988;2022-07-25T10:06:29;100355.72;;;30.58;35.22
73143;BME280;61343;53.694;9.988;2022-07-25T10:08:55;100354.72;;;30.81;34.77
73143;BME280;61343;53.694;9.988;2022-07-25T10:11:25;100364.75;;;30.89;34.44
73143;BME280;61343;53.694;9.988;2022-07-25T10:13:52;100360.75;;;30.87;35.08
73143;BME280;61343;53.694;9.988;2022-07-25T10:16:20;100363.34;;;30.95;34.53
73143;BME280;61343;53.694;9.988;2022-07-25T10:18:48;100360.16;;;30.93;35.42
73143;BME280;61343;53.694;9.988;2022-07-25T10:21:14;100367.25;;;30.94;34.66
73143;BME280;61343;53.694;9.988;2022-07-25T10:23:39;100361.28;;;30.92;34.54
73143;BME280;61343;53.694;9.988;2022-07-25T10:26:10;100356.56;;;30.77;35.44
73143;BME280;61343;53.694;9.988;2022-07-25T10:28:45;100363.78;;;30.82;36.51
73143;BME280;61343;53.694;9.988;2022-07-25T10:31:39;100360.69;;;30.52;36.11
73143;BME280;61343;53.694;9.988;2022-07-25T10:34:08;100354.56;;;30.59;35.91
73143;BME280;61343;53.694;9.988;2022-07-25T10:39:38;100354.56;;;30.59;35.78
73143;BME280;61343;53.694;9.988;2022-07-25T10:42:05;100341.25;;;30.17;36.85
73143;BME280;61343;53.694;9.988;2022-07-25T10:44:42;100347.38;;;30.26;36.66
73143;BME280;61343;53.694;9.988;2022-07-25T10:47:09;100352.41;;;30.09;37.27
73143;BME280;61343;53.694;9.988;2022-07-25T10:49:38;100346.41;;;30.19;37.13
73143;BME280;61343;53.694;9.988;2022-07-25T10:52:03;100344.47;;;30.35;37.18
73143;BME280;61343;53.694;9.988;2022-07-25T10:54:37;100339.53;;;30.13;37.22
73143;BME280;61343;53.694;9.988;2022-07-25T10:57:04;100336.50;;;30.02;36.79
73143;BME280;61343;53.694;9.988;2022-07-25T10:59:37;100337.41;;;30.22;37.58
73143;BME280;61343;53.694;9.988;2022-07-25T11:02:05;100337.22;;;30.30;37.91
73143;BME280;61343;53.694;9.988;2022-07-25T11:04:31;100338.38;;;30.14;36.56
73143;BME280;61343;53.694;9.988;2022-07-25T11:06:57;100336.00;;;30.28;36.76
73143;BME280;61343;53.694;9.988;2022-07-25T11:09:31;100329.00;;;30.03;37.39
73143;BME280;61343;53.694;9.988;2022-07-25T11:11:57;100336.88;;;30.16;37.62
73143;BME280;61343;53.694;9.988;2022-07-25T11:14:25;100332.06;;;30.13;38.08
73143;BME280;61343;53.694;9.988;2022-07-25T11:16:54;100327.34;;;30.14;37.85
73143;BME280;61343;53.694;9.988;2022-07-25T11:19:27;100334.84;;;30.29;37.71
73143;BME280;61343;53.694;9.988;2022-07-25T11:21:54;100325.78;;;30.44;37.31
73143;BME280;61343;53.694;9.988;2022-07-25T11:24:20;100326.91;;;30.27;37.25
73143;BME280;61343;53.694;9.988;2022-07-25T11:26:49;100326.50;;;30.41;37.94
73143;BME280;61343;53.694;9.988;2022-07-25T11:29:23;100324.97;;;30.59;37.60
73143;BME280;61343;53.694;9.988;2022-07-25T11:31:57;100325.78;;;30.75;37.08
73143;BME280;61343;53.694;9.988;2022-07-25T11:34:26;100308.63;;;30.85;36.94
73143;BME280;61343;53.694;9.988;2022-07-25T11:36:54;100312.56;;;30.84;37.07
73143;BME280;61343;53.694;9.988;2022-07-25T11:39:23;100309.13;;;30.56;36.15
73143;BME280;61343;53.694;9.988;2022-07-25T11:42:01;100308.69;;;30.54;37.16
73143;BME280;61343;53.694;9.988;2022-07-25T11:44:35;100319.72;;;30.70;35.91
73143;BME280;61343;53.694;9.988;2022-07-25T11:47:03;100293.44;;;30.76;36.46
73143;BME280;61343;53.694;9.988;2022-07-25T11:49:28;100304.06;;;30.58;36.72
73143;BME280;61343;53.694;9.988;2022-07-25T11:51:54;100302.25;;;30.81;36.85
73143;BME280;61343;53.694;9.988;2022-07-25T11:54:19;100302.31;;;31.01;36.62
73143;BME280;61343;53.694;9.988;2022-07-25T11:56:44;100293.97;;;30.97;36.26
73143;BME280;61343;53.694;9.988;2022-07-25T11:59:11;100297.88;;;31.15;36.15
73143;BME280;61343;53.694;9.988;2022-07-25T12:01:39;100290.44;;;31.35;35.65
73143;BME280;61343;53.694;9.988;2022-07-25T12:04:17;100286.22;;;31.60;35.13
73143;BME280;61343;53.694;9.988;2022-07-25T12:06:46;100277.19;;;31.44;35.06
73143;BME280;61343;53.694;9.988;2022-07-25T12:09:17;100269.47;;;31.72;34.67
73143;BME280;61343;53.694;9.988;2022-07-25T12:11:43;100263.06;;;31.68;33.82
73143;BME280;61343;53.694;9.988;2022-07-25T12:14:09;100254.78;;;31.68;33.80
73143;BME280;61343;53.694;9.988;2022-07-25T12:16:35;100256.41;;;31.50;33.65
73143;BME280;61343;53.694;9.988;2022-07-25T12:19:02;100257.72;;;31.18;34.47
73143;BME280;61343;53.694;9.988;2022-07-25T12:21:27;100259.59;;;31.52;34.51
73143;BME280;61343;53.694;9.988;2022-07-25T12:23:53;100245.41;;;31.95;34.39
73143;BME280;61343;53.694;9.988;2022-07-25T12:26:18;100241.66;;;32.07;33.32
73143;BME280;61343;53.694;9.988;2022-07-25T12:28:44;100251.16;;;31.64;33.65
73143;BME280;61343;53.694;9.988;2022-07-25T12:31:09;100249.78;;;31.96;33.77
73143;BME280;61343;53.694;9.988;2022-07-25T12:33:35;100249.78;;;31.55;33.47
73143;BME280;61343;53.694;9.988;2022-07-25T12:36:01;100264.69;;;31.31;33.70
73143;BME280;61343;53.694;9.988;2022-07-25T12:38:27;100262.63;;;31.66;32.89
73143;BME280;61343;53.694;9.988;2022-07-25T12:40:53;100266.28;;;31.70;33.46
73143;BME280;61343;53.694;9.988;2022-07-25T12:43:19;100271.09;;;31.35;33.90
73143;BME280;61343;53.694;9.988;2022-07-25T12:45:44;100259.34;;;31.41;33.77
73143;BME280;61343;53.694;9.988;2022-07-25T12:48:11;100253.47;;;31.24;34.38
73143;BME280;61343;53.694;9.988;2022-07-25T12:50:37;100250.28;;;31.22;34.63
73143;BME280;61343;53.694;9.988;2022-07-25T12:53:03;100265.69;;;31.04;35.28
73143;BME280;61343;53.694;9.988;2022-07-25T12:55:28;100259.72;;;31.02;34.82